createdAt,value
2023-04-01T00:00:55.087Z,99072.00
2023-04-01T00:03:23.934Z,99071.00
2023-04-01T00:05:52.066Z,99067.40
2023-04-01T00:08:20.278Z,99067.00
2023-04-01T00:10:48.326Z,99074.60
2023-04-01T00:13:16.547Z,99079.40
2023-04-01T00:15:44.632Z,99078.20
2023-04-01T00:18:12.880Z,99073.80
2023-04-01T00:20:45.118Z,99066.40
2023-04-01T00:23:13.546Z,99061.40
2023-04-01T00:25:41.605Z,99057.40
2023-04-01T00:28:09.607Z,99054.00
2023-04-01T00:30:38.124Z,99042.40
2023-04-01T00:33:06.290Z,99036.00
2023-04-01T00:35:34.651Z,99030.20
2023-04-01T00:38:02.841Z,99032.40
2023-04-01T00:40:31.227Z,99025.00
2023-04-01T00:42:59.326Z,99024.20
2023-04-01T00:45:31.023Z,99029.80
2023-04-01T00:48:01.089Z,99034.60
2023-04-01T00:50:29.344Z,99030.60
2023-04-01T00:52:57.383Z,99022.80
2023-04-01T00:55:25.549Z,99023.00
2023-04-01T00:57:53.500Z,99019.20
2023-04-01T01:00:22.614Z,99019.40
2023-04-01T01:02:51.321Z,99023.60
2023-04-01T01:05:21.167Z,99026.20
2023-04-01T01:07:56.752Z,99014.60
2023-04-01T01:10:25.870Z,99012.00
2023-04-01T01:13:13.025Z,99016.40
2023-04-01T01:15:53.725Z,99011.40
2023-04-01T01:18:41.461Z,99012.20
2023-04-01T01:21:21.020Z,99008.00
2023-04-01T01:24:26.307Z,99005.60
2023-04-01T01:26:58.308Z,99015.20
2023-04-01T01:29:43.905Z,99009.60
2023-04-01T01:32:27.056Z,99010.20
2023-04-01T01:35:15.557Z,99001.00
2023-04-01T01:37:43.824Z,99000.20
2023-04-01T01:40:12.775Z,98993.60
2023-04-01T01:42:44.973Z,98983.60
2023-04-01T01:45:12.881Z,98978.40
2023-04-01T01:47:40.819Z,98975.60
2023-04-01T01:50:09.163Z,98975.40
2023-04-01T01:52:37.389Z,98978.00
2023-04-01T01:55:27.588Z,98975.60
2023-04-01T01:57:56.694Z,98967.20
2023-04-01T02:00:24.666Z,98971.00
2023-04-01T02:02:52.808Z,98971.40
2023-04-01T02:05:25.652Z,98970.40
2023-04-01T02:08:41.380Z,98963.20
2023-04-01T02:11:11.477Z,98971.20
2023-04-01T02:13:43.196Z,98972.20
2023-04-01T02:16:40.490Z,98976.20
2023-04-01T02:19:08.637Z,98973.00
2023-04-01T02:21:36.521Z,98970.00
2023-04-01T02:24:07.040Z,98969.60
2023-04-01T02:26:35.534Z,98962.60
2023-04-01T02:29:04.811Z,98963.00
2023-04-01T02:31:32.884Z,98952.00
2023-04-01T02:34:00.998Z,98959.60
2023-04-01T02:36:29.079Z,98951.40
2023-04-01T02:38:57.291Z,98951.80
2023-04-01T02:41:25.969Z,98951.80
2023-04-01T02:43:53.820Z,98944.20
2023-04-01T02:46:21.863Z,98937.80
2023-04-01T02:48:49.879Z,98933.20
2023-04-01T02:51:18.625Z,98930.40
2023-04-01T02:53:46.577Z,98933.00
2023-04-01T02:56:14.667Z,98937.00
2023-04-01T02:58:42.606Z,98944.00
2023-04-01T03:01:10.894Z,98938.00
2023-04-01T03:03:39.993Z,98935.20
2023-04-01T03:06:13.290Z,98930.40
2023-04-01T03:08:41.309Z,98931.60
2023-04-01T03:11:10.887Z,98924.40
2023-04-01T03:13:38.885Z,98923.20
2023-04-01T03:16:07.256Z,98926.40
2023-04-01T03:18:36.899Z,98921.20
2023-04-01T03:21:18.288Z,98922.20
2023-04-01T03:23:46.316Z,98921.60
2023-04-01T03:26:14.730Z,98922.20
2023-04-01T03:28:43.351Z,98927.60
2023-04-01T03:31:11.716Z,98928.00
2023-04-01T03:33:43.991Z,98935.40
2023-04-01T03:36:13.792Z,98936.40
2023-04-01T03:38:42.373Z,98943.00
2023-04-01T03:41:17.016Z,98946.40
2023-04-01T03:43:45.387Z,98944.80
2023-04-01T03:46:18.661Z,98941.80
2023-04-01T03:48:47.158Z,98944.20
2023-04-01T03:51:15.516Z,98943.60
2023-04-01T03:53:43.513Z,98945.00
2023-04-01T03:56:11.459Z,98940.00
2023-04-01T03:58:40.260Z,98943.20
2023-04-01T04:01:16.662Z,98947.00
2023-04-01T04:03:45.350Z,98944.00
2023-04-01T04:06:14.577Z,98939.60
2023-04-01T04:08:42.980Z,98944.40
2023-04-01T04:11:11.065Z,98936.80
2023-04-01T04:13:42.110Z,98931.40
2023-04-01T04:16:11.035Z,98932.40
2023-04-01T04:18:42.104Z,98933.80
2023-04-01T04:21:13.863Z,98934.80
2023-04-01T04:23:43.203Z,98933.20
2023-04-01T04:26:12.901Z,98928.80
2023-04-01T04:28:41.579Z,98931.00
2023-04-01T04:31:09.863Z,98925.80
2023-04-01T04:33:38.056Z,98925.20
2023-04-01T04:36:06.483Z,98917.80
2023-04-01T04:38:34.471Z,98912.40
2023-04-01T04:41:02.938Z,98912.80
2023-04-01T04:43:30.968Z,98911.80
2023-04-01T04:45:59.265Z,98907.40
2023-04-01T04:48:27.185Z,98907.20
2023-04-01T04:50:55.127Z,98907.60
2023-04-01T04:53:26.352Z,98903.20
2023-04-01T04:55:54.424Z,98906.20
2023-04-01T04:58:34.966Z,98906.80
2023-04-01T05:01:08.232Z,98907.60
2023-04-01T05:03:36.617Z,98902.20
2023-04-01T05:06:04.994Z,98900.80
2023-04-01T05:08:34.002Z,98900.20
2023-04-01T05:11:02.495Z,98902.60
2023-04-01T05:13:30.942Z,98897.00
2023-04-01T05:15:58.983Z,98899.40
2023-04-01T05:18:27.169Z,98890.80
2023-04-01T05:20:55.351Z,98890.80
2023-04-01T05:23:24.375Z,98893.20
2023-04-01T05:25:53.872Z,98890.60
2023-04-01T05:28:21.952Z,98890.00
2023-04-01T05:30:49.930Z,98891.80
2023-04-01T05:33:31.261Z,98893.20
2023-04-01T05:36:10.849Z,98893.40
2023-04-01T05:38:39.218Z,98899.40
2023-04-01T05:41:08.689Z,98898.00
2023-04-01T05:43:39.414Z,98897.00
2023-04-01T05:46:27.447Z,98895.00
2023-04-01T05:49:06.020Z,98898.80
2023-04-01T05:51:34.316Z,98894.80
2023-04-01T05:54:02.236Z,98889.80
2023-04-01T05:56:30.500Z,98892.80
2023-04-01T05:58:58.555Z,98891.00
2023-04-01T06:01:26.544Z,98894.00
2023-04-01T06:03:54.683Z,98889.00
2023-04-01T06:06:27.885Z,98885.60
2023-04-01T06:08:59.829Z,98886.80
2023-04-01T06:11:53.864Z,98877.00
2023-04-01T06:14:39.944Z,98876.00
2023-04-01T06:17:32.575Z,98870.60
2023-04-01T06:20:13.567Z,98872.60
2023-04-01T06:22:50.541Z,98875.60
2023-04-01T06:25:57.224Z,98877.00
2023-04-01T06:28:40.707Z,98887.00
2023-04-01T06:31:27.775Z,98893.20
2023-04-01T06:34:06.100Z,98894.60
2023-04-01T06:36:49.395Z,98892.80
2023-04-01T06:39:42.366Z,98893.40
2023-04-01T06:43:03.686Z,98898.80
2023-04-01T06:46:03.920Z,98912.60
2023-04-01T06:49:04.575Z,98915.20
2023-04-01T06:52:20.022Z,98916.20
2023-04-01T06:55:22.879Z,98920.20
2023-04-01T06:58:26.103Z,98918.60
2023-04-01T07:00:56.099Z,98914.00
2023-04-01T07:03:37.733Z,98915.60
2023-04-01T07:06:10.655Z,98924.00
2023-04-01T07:08:42.343Z,98933.20
2023-04-01T07:11:11.775Z,98938.20
2023-04-01T07:14:11.085Z,98945.60
2023-04-01T07:16:52.429Z,98951.00
2023-04-01T07:19:33.757Z,98954.60
2023-04-01T07:22:16.961Z,98956.60
2023-04-01T07:25:13.738Z,98962.00
2023-04-01T07:27:43.139Z,98957.40
2023-04-01T07:30:21.647Z,98968.80
2023-04-01T07:33:05.831Z,98970.00
2023-04-01T07:35:44.570Z,98968.60
2023-04-01T07:38:26.594Z,98975.40
2023-04-01T07:41:07.928Z,98982.60
2023-04-01T07:43:59.397Z,98990.40
2023-04-01T07:46:42.348Z,98989.40
2023-04-01T07:49:19.508Z,98993.20
2023-04-01T07:51:51.226Z,98987.40
2023-04-01T07:54:19.299Z,98964.00
2023-04-01T07:56:50.651Z,98970.00
2023-04-01T07:59:48.656Z,98976.00
2023-04-01T08:02:32.094Z,98981.80
2023-04-01T08:05:19.255Z,98974.40
2023-04-01T08:08:07.303Z,98969.80
2023-04-01T08:11:18.359Z,98971.80
2023-04-01T08:14:27.436Z,98963.00
2023-04-01T08:17:40.113Z,98951.20
2023-04-01T08:20:27.794Z,98943.40
2023-04-01T08:23:07.233Z,98939.40
2023-04-01T08:25:45.760Z,98930.00
2023-04-01T08:28:30.782Z,98924.20
2023-04-01T08:31:00.514Z,98920.20
2023-04-01T08:33:29.857Z,98914.20
2023-04-01T08:36:10.470Z,98907.60
2023-04-01T08:39:05.939Z,98905.20
2023-04-01T08:41:50.657Z,98893.80
2023-04-01T08:44:40.908Z,98892.60
2023-04-01T08:47:27.465Z,98890.00
2023-04-01T08:50:37.398Z,98889.00
2023-04-01T08:53:35.216Z,98887.20
2023-04-01T08:56:05.740Z,98885.20
2023-04-01T08:58:56.473Z,98881.60
2023-04-01T09:01:56.689Z,98880.60
2023-04-01T09:05:15.666Z,98870.40
2023-04-01T09:07:51.188Z,98862.40
2023-04-01T09:10:30.730Z,98861.20
2023-04-01T09:13:19.242Z,98854.40
2023-04-01T09:16:12.220Z,98842.00
2023-04-01T09:18:50.032Z,98830.20
2023-04-01T09:21:20.963Z,98821.20
2023-04-01T09:24:00.041Z,98820.60
2023-04-01T09:26:52.487Z,98810.60
2023-04-01T09:29:42.514Z,98797.60
2023-04-01T09:32:35.673Z,98785.80
2023-04-01T09:35:26.683Z,98775.20
2023-04-01T09:38:51.577Z,98782.60
2023-04-01T09:41:40.684Z,98803.20
2023-04-01T09:44:23.044Z,98806.40
2023-04-01T09:47:22.045Z,98798.20
2023-04-01T09:50:15.117Z,98825.00
2023-04-01T09:52:52.856Z,98801.20
2023-04-01T09:55:46.859Z,98786.00
2023-04-01T09:58:29.713Z,98767.80
2023-04-01T10:01:34.911Z,98742.80
2023-04-01T10:04:31.366Z,98744.40
2023-04-01T10:07:22.771Z,98734.60
2023-04-01T10:10:20.931Z,98741.60
2023-04-01T10:12:48.863Z,98740.60
2023-04-01T10:15:55.078Z,98746.20
2023-04-01T10:18:54.236Z,98760.80
2023-04-01T10:21:28.372Z,98776.80
2023-04-01T10:24:15.161Z,98784.80
2023-04-01T10:27:21.540Z,98785.40
2023-04-01T10:30:29.995Z,98787.60
2023-04-01T10:33:18.768Z,98790.80
2023-04-01T10:35:56.394Z,98783.80
2023-04-01T10:39:02.432Z,98784.20
2023-04-01T10:41:42.607Z,98779.80
2023-04-01T10:45:04.437Z,98776.20
2023-04-01T10:47:45.123Z,98772.00
2023-04-01T10:50:19.184Z,98757.80
2023-04-01T10:53:13.466Z,98756.20
2023-04-01T10:56:01.365Z,98747.40
2023-04-01T10:59:09.166Z,98743.60
2023-04-01T11:02:36.550Z,98741.60
2023-04-01T11:05:37.756Z,98735.80
2023-04-01T11:08:53.106Z,98739.40
2023-04-01T11:11:44.950Z,98732.40
2023-04-01T11:14:22.691Z,98727.00
2023-04-01T11:16:58.726Z,98723.40
2023-04-01T11:19:48.645Z,98717.80
2023-04-01T11:22:42.156Z,98719.40
2023-04-01T11:25:21.748Z,98719.80
2023-04-01T11:28:19.569Z,98710.20
2023-04-01T11:31:09.610Z,98711.20
2023-04-01T11:33:40.428Z,98708.80
2023-04-01T11:36:37.009Z,98716.00
2023-04-01T11:39:26.129Z,98718.60
2023-04-01T11:42:25.003Z,98712.80
2023-04-01T11:45:56.746Z,98712.00
2023-04-01T11:48:45.873Z,98703.00
2023-04-01T11:51:17.155Z,98714.00
2023-04-01T11:54:01.133Z,98713.60
2023-04-01T11:57:04.350Z,98712.40
2023-04-01T11:59:47.636Z,98708.60
2023-04-01T12:02:44.145Z,98714.00
2023-04-01T12:05:24.312Z,98709.80
2023-04-01T12:08:20.396Z,98693.80
2023-04-01T12:10:55.860Z,98683.40
2023-04-01T12:13:59.246Z,98686.40
2023-04-01T12:20:03.260Z,98697.80
2023-04-01T12:22:37.384Z,98689.60
2023-04-01T12:25:08.157Z,98688.80
2023-04-01T12:27:53.880Z,98691.80
2023-04-01T12:30:47.046Z,98692.60
2023-04-01T12:33:39.896Z,98691.40
2023-04-01T12:36:14.016Z,98689.60
2023-04-01T12:38:57.003Z,98685.60
2023-04-01T12:41:39.324Z,98693.40
2023-04-01T12:44:13.140Z,98698.20
2023-04-01T12:47:25.669Z,98693.60
2023-04-01T12:50:07.504Z,98685.80
2023-04-01T12:52:53.203Z,98680.40
2023-04-01T12:55:40.286Z,98681.60
2023-04-01T12:58:33.653Z,98679.60
2023-04-01T13:01:29.030Z,98673.80
2023-04-01T13:04:06.088Z,98670.60
2023-04-01T13:06:47.427Z,98671.20
2023-04-01T13:09:19.830Z,98659.20
2023-04-01T13:12:22.229Z,98654.80
2023-04-01T13:15:09.044Z,98653.40
2023-04-01T13:17:52.156Z,98648.40
2023-04-01T13:20:20.918Z,98651.00
2023-04-01T13:23:13.127Z,98652.20
2023-04-01T13:25:44.764Z,98648.80
2023-04-01T13:28:13.366Z,98648.80
2023-04-01T13:31:00.975Z,98650.80
2023-04-01T13:34:03.729Z,98661.40
2023-04-01T13:37:10.848Z,98659.20
2023-04-01T13:40:14.362Z,98650.80
2023-04-01T13:42:55.874Z,98644.60
2023-04-01T13:49:10.728Z,98628.40
2023-04-01T13:51:55.532Z,98625.80
2023-04-01T13:54:37.626Z,98620.20
2023-04-01T13:57:19.070Z,98613.00
2023-04-01T13:59:50.505Z,98614.40
2023-04-01T14:02:58.485Z,98608.40
2023-04-01T14:05:46.342Z,98614.00
2023-04-01T14:08:57.076Z,98617.00
2023-04-01T14:11:37.947Z,98621.80
2023-04-01T14:14:24.473Z,98620.60
2023-04-01T14:16:56.484Z,98622.80
2023-04-01T14:19:36.702Z,98622.80
2023-04-01T14:22:20.247Z,98619.60
2023-04-01T14:25:00.623Z,98614.80
2023-04-01T14:27:51.165Z,98619.80
2023-04-01T14:30:38.949Z,98615.60
2023-04-01T14:33:25.024Z,98613.60
2023-04-01T14:36:05.332Z,98620.80
2023-04-01T14:39:02.860Z,98624.40
2023-04-01T14:41:50.576Z,98624.60
2023-04-01T14:44:49.811Z,98620.40
2023-04-01T14:47:36.487Z,98624.60
2023-04-01T14:50:15.134Z,98618.40
2023-04-01T14:53:12.494Z,98617.80
2023-04-01T14:55:43.637Z,98618.20
2023-04-01T14:58:13.028Z,98627.20
2023-04-01T15:00:56.575Z,98622.20
2023-04-01T15:03:32.240Z,98627.40
2023-04-01T15:06:28.526Z,98635.60
2023-04-01T15:09:12.236Z,98631.80
2023-04-01T15:11:48.287Z,98636.40
2023-04-01T15:14:26.353Z,98632.60
2023-04-01T15:17:08.686Z,98623.20
2023-04-01T15:20:18.409Z,98616.80
2023-04-01T15:23:13.278Z,98607.60
2023-04-01T15:26:09.579Z,98607.40
2023-04-01T15:28:51.456Z,98601.80
2023-04-01T15:31:26.509Z,98606.40
2023-04-01T15:34:13.680Z,98601.80
2023-04-01T15:36:54.138Z,98599.60
2023-04-01T15:39:40.986Z,98600.00
2023-04-01T15:42:30.237Z,98599.00
2023-04-01T15:45:07.900Z,98593.40
2023-04-01T15:47:42.772Z,98589.80
2023-04-01T15:50:11.968Z,98593.80
2023-04-01T15:52:58.886Z,98601.00
2023-04-01T15:55:39.229Z,98609.60
2023-04-01T15:58:07.169Z,98613.80
2023-04-01T16:00:46.415Z,98615.80
2023-04-01T16:03:36.600Z,98614.80
2023-04-01T16:06:35.949Z,98615.20
2023-04-01T16:09:04.082Z,98615.60
2023-04-01T16:12:15.692Z,98617.80
2023-04-01T16:15:07.840Z,98619.80
2023-04-01T16:17:47.606Z,98625.80
2023-04-01T16:20:37.370Z,98633.80
2023-04-01T16:23:16.184Z,98638.20
2023-04-01T16:25:53.395Z,98635.80
2023-04-01T16:28:42.174Z,98638.60
2023-04-01T16:31:16.148Z,98641.00
2023-04-01T16:33:58.030Z,98640.20
2023-04-01T16:36:36.330Z,98639.00
2023-04-01T16:39:17.049Z,98645.80
2023-04-01T16:42:08.142Z,98641.20
2023-04-01T16:45:26.071Z,98648.20
2023-04-01T16:48:12.656Z,98645.60
2023-04-01T16:51:03.655Z,98644.20
2023-04-01T16:54:01.876Z,98646.40
2023-04-01T16:56:39.303Z,98649.80
2023-04-01T16:59:07.649Z,98653.00
2023-04-01T17:01:46.108Z,98657.40
2023-04-01T17:04:46.680Z,98657.00
2023-04-01T17:07:33.011Z,98664.20
2023-04-01T17:10:23.963Z,98670.00
2023-04-01T17:13:07.262Z,98669.60
2023-04-01T17:15:46.937Z,98675.40
2023-04-01T17:18:48.971Z,98671.80
2023-04-01T17:21:26.752Z,98677.80
2023-04-01T17:24:33.784Z,98680.40
2023-04-01T17:27:13.661Z,98677.20
2023-04-01T17:30:21.769Z,98678.40
2023-04-01T17:33:08.386Z,98678.20
2023-04-01T17:35:41.389Z,98680.60
2023-04-01T17:38:41.808Z,98675.20
2023-04-01T17:41:11.770Z,98678.00
2023-04-01T17:43:48.893Z,98676.20
2023-04-01T17:46:35.573Z,98683.40
2023-04-01T17:49:26.949Z,98689.00
2023-04-01T17:52:22.823Z,98684.20
2023-04-01T17:55:15.164Z,98691.40
2023-04-01T17:58:12.977Z,98687.60
2023-04-01T18:00:59.834Z,98693.80
2023-04-01T18:03:59.475Z,98696.20
2023-04-01T18:06:52.938Z,98696.20
2023-04-01T18:09:40.570Z,98694.20
2023-04-01T18:12:30.442Z,98696.80
2023-04-01T18:14:58.216Z,98699.60
2023-04-01T18:17:29.552Z,98700.00
2023-04-01T18:20:00.825Z,98702.60
2023-04-01T18:22:40.884Z,98702.00
2023-04-01T18:25:08.706Z,98705.80
2023-04-01T18:27:41.706Z,98707.40
2023-04-01T18:30:21.662Z,98707.20
2023-04-01T18:33:10.956Z,98703.00
2023-04-01T18:35:41.887Z,98701.00
2023-04-01T18:38:14.313Z,98704.40
2023-04-01T18:41:07.178Z,98703.60
2023-04-01T18:43:43.711Z,98705.20
2023-04-01T18:46:34.464Z,98706.20
2023-04-01T18:49:19.093Z,98708.60
2023-04-01T18:51:50.658Z,98714.60
2023-04-01T18:54:33.375Z,98717.80
2023-04-01T18:57:24.455Z,98721.40
2023-04-01T19:00:17.373Z,98724.00
2023-04-01T19:02:52.381Z,98722.20
2023-04-01T19:05:43.299Z,98723.60
2023-04-01T19:08:29.236Z,98732.20
2023-04-01T19:11:50.790Z,98729.60
2023-04-01T19:14:37.172Z,98731.00
2023-04-01T19:17:18.869Z,98734.20
2023-04-01T19:19:55.996Z,98732.20
2023-04-01T19:22:39.158Z,98735.60
2023-04-01T19:25:38.354Z,98740.00
2023-04-01T19:28:31.265Z,98746.20
2023-04-01T19:31:02.797Z,98748.00
2023-04-01T19:33:40.610Z,98752.40
2023-04-01T19:36:19.588Z,98756.40
2023-04-01T19:39:11.021Z,98761.60
2023-04-01T19:41:45.901Z,98759.80
2023-04-01T19:44:29.655Z,98764.60
2023-04-01T19:47:06.781Z,98766.20
2023-04-01T19:49:49.847Z,98769.00
2023-04-01T19:52:42.537Z,98770.80
2023-04-01T19:55:26.030Z,98774.00
2023-04-01T19:58:08.812Z,98778.20
2023-04-01T20:00:42.761Z,98779.60
2023-04-01T20:03:27.796Z,98783.20
2023-04-01T20:05:58.192Z,98780.20
2023-04-01T20:08:50.594Z,98779.80
2023-04-01T20:11:46.151Z,98779.60
2023-04-01T20:14:41.799Z,98781.00
2023-04-01T20:17:43.492Z,98782.20
2023-04-01T20:20:11.711Z,98777.60
2023-04-01T20:22:55.877Z,98773.60
2023-04-01T20:25:25.040Z,98777.60
2023-04-01T20:28:03.372Z,98778.80
2023-04-01T20:30:37.409Z,98789.00
2023-04-01T20:33:27.558Z,98790.60
2023-04-01T20:36:28.350Z,98795.40
2023-04-01T20:39:18.137Z,98795.40
2023-04-01T20:42:24.835Z,98802.00
2023-04-01T20:45:16.661Z,98812.20
2023-04-01T20:48:00.582Z,98810.60
2023-04-01T20:50:53.538Z,98814.00
2023-04-01T20:53:27.510Z,98821.40
2023-04-01T20:56:11.016Z,98828.20
2023-04-01T20:58:55.982Z,98829.20
2023-04-01T21:02:00.802Z,98829.60
2023-04-01T21:04:32.292Z,98826.00
2023-04-01T21:07:09.294Z,98836.20
2023-04-01T21:09:37.236Z,98836.20
2023-04-01T21:12:40.719Z,98836.20
2023-04-01T21:15:11.606Z,98832.00
2023-04-01T21:17:51.691Z,98835.20
2023-04-01T21:20:53.185Z,98837.80
2023-04-01T21:23:36.747Z,98848.00
2023-04-01T21:26:27.702Z,98848.20
2023-04-01T21:29:15.578Z,98851.40
2023-04-01T21:32:01.349Z,98842.80
2023-04-01T21:34:48.458Z,98848.00
2023-04-01T21:37:33.919Z,98846.20
2023-04-01T21:40:19.024Z,98847.00
2023-04-01T21:43:15.016Z,98852.00
2023-04-01T21:45:58.299Z,98847.20
2023-04-01T21:48:47.634Z,98841.40
2023-04-01T21:51:21.086Z,98843.80
2023-04-01T21:54:13.111Z,98857.00
2023-04-01T21:56:47.195Z,98860.60
2023-04-01T21:59:38.003Z,98862.40
2023-04-01T22:02:27.485Z,98865.00
2023-04-01T22:05:18.514Z,98869.00
2023-04-01T22:07:58.565Z,98874.00
2023-04-01T22:10:52.622Z,98877.40
2023-04-01T22:13:44.766Z,98882.60
2023-04-01T22:16:16.491Z,98881.40
2023-04-01T22:18:51.272Z,98884.00
2023-04-01T22:21:34.974Z,98884.20
2023-04-01T22:24:21.406Z,98889.00
2023-04-01T22:27:18.503Z,98892.60
2023-04-01T22:29:56.162Z,98894.00
2023-04-01T22:32:28.207Z,98891.00
2023-04-01T22:35:03.718Z,98895.60
2023-04-01T22:37:37.771Z,98899.60
2023-04-01T22:40:25.712Z,98901.20
2023-04-01T22:43:02.529Z,98905.20
2023-04-01T22:45:45.781Z,98905.80
2023-04-01T22:48:22.696Z,98901.20
2023-04-01T22:50:58.193Z,98899.60
2023-04-01T22:53:50.722Z,98904.40
2023-04-01T22:56:24.894Z,98902.00
2023-04-01T22:59:01.765Z,98901.00
2023-04-01T23:01:31.885Z,98901.00
2023-04-01T23:03:59.924Z,98898.60
2023-04-01T23:06:30.852Z,98896.20
2023-04-01T23:09:11.073Z,98900.40
2023-04-01T23:12:14.500Z,98899.80
2023-04-01T23:14:48.436Z,98901.00
2023-04-01T23:17:51.114Z,98906.60
2023-04-01T23:20:31.982Z,98905.20
2023-04-01T23:23:18.670Z,98904.00
2023-04-01T23:25:59.665Z,98899.40
2023-04-01T23:28:44.581Z,98905.40
2023-04-01T23:31:32.071Z,98908.00
2023-04-01T23:34:10.332Z,98907.80
2023-04-01T23:36:43.931Z,98904.20
2023-04-01T23:39:31.402Z,98904.20
2023-04-01T23:42:29.486Z,98913.40
2023-04-01T23:44:59.616Z,98912.40
2023-04-01T23:47:32.516Z,98914.00
2023-04-01T23:50:21.386Z,98915.60
2023-04-01T23:53:22.639Z,98914.60
2023-04-01T23:55:52.705Z,98911.80
2023-04-01T23:58:48.050Z,98905.20
